createdAt,value
2022-10-22T00:00:15.492Z,101773.91
2022-10-22T00:02:43.322Z,101771.06
2022-10-22T00:05:10.745Z,101769.84
2022-10-22T00:07:38.580Z,101772.69
2022-10-22T00:10:06.747Z,101771.06
2022-10-22T00:12:34.219Z,101770.38
2022-10-22T00:15:01.662Z,101761.88
2022-10-22T00:17:29.012Z,101759.78
2022-10-22T00:19:56.507Z,101765.59
2022-10-22T00:22:24.937Z,101760.03
2022-10-22T00:24:52.307Z,101755.66
2022-10-22T00:27:19.608Z,101746.56
2022-10-22T00:29:47.952Z,101749.78
2022-10-22T00:32:15.528Z,101753.88
2022-10-22T00:34:43.035Z,101750.97
2022-10-22T00:37:10.580Z,101740.88
2022-10-22T00:39:38.057Z,101735.38
2022-10-22T00:42:05.833Z,101733.56
2022-10-22T00:45:02.719Z,101729.88
2022-10-22T00:47:37.475Z,101733.78
2022-10-22T00:50:09.429Z,101733.91
2022-10-22T00:52:37.837Z,101740.88
2022-10-22T00:55:05.594Z,101742.84
2022-10-22T00:57:34.092Z,101740.34
2022-10-22T01:00:01.715Z,101730.59
2022-10-22T01:02:29.100Z,101729.09
2022-10-22T01:04:56.507Z,101725.53
2022-10-22T01:07:24.147Z,101727.81
2022-10-22T01:09:57.726Z,101726.47
2022-10-22T01:12:27.754Z,101717.72
2022-10-22T01:15:13.740Z,101727.47
2022-10-22T01:17:43.833Z,101714.69
2022-10-22T01:20:17.370Z,101715.03
2022-10-22T01:22:45.003Z,101710.75
2022-10-22T01:25:15.282Z,101721.72
2022-10-22T01:27:53.354Z,101715.28
2022-10-22T01:30:20.863Z,101712.94
2022-10-22T01:32:59.486Z,101708.69
2022-10-22T01:35:27.868Z,101721.03
2022-10-22T01:37:58.836Z,101724.25
2022-10-22T01:40:27.745Z,101722.53
2022-10-22T01:42:57.106Z,101726.50
2022-10-22T01:45:24.680Z,101720.22
2022-10-22T01:48:29.415Z,101723.94
2022-10-22T01:51:05.726Z,101721.28
2022-10-22T01:53:33.491Z,101718.16
2022-10-22T01:56:16.594Z,101719.22
2022-10-22T01:58:58.824Z,101728.16
2022-10-22T02:01:27.240Z,101722.19
2022-10-22T02:04:03.804Z,101722.09
2022-10-22T02:06:31.370Z,101719.22
2022-10-22T02:08:58.812Z,101723.88
2022-10-22T02:11:26.624Z,101728.53
2022-10-22T02:13:55.030Z,101731.22
2022-10-22T02:16:27.366Z,101729.47
2022-10-22T02:18:55.990Z,101725.31
2022-10-22T02:21:23.309Z,101728.56
2022-10-22T02:23:50.659Z,101732.69
2022-10-22T02:26:38.239Z,101729.25
2022-10-22T02:29:07.064Z,101726.69
2022-10-22T02:31:36.167Z,101732.34
2022-10-22T02:34:05.512Z,101737.63
2022-10-22T02:36:33.539Z,101726.47
2022-10-22T02:39:00.835Z,101731.34
2022-10-22T02:41:28.229Z,101738.28
2022-10-22T02:43:56.058Z,101736.16
2022-10-22T02:46:23.965Z,101744.31
2022-10-22T02:48:51.255Z,101741.84
2022-10-22T02:51:18.816Z,101738.66
2022-10-22T02:53:46.425Z,101748.41
2022-10-22T02:56:14.487Z,101748.13
2022-10-22T02:58:41.975Z,101758.00
2022-10-22T03:01:11.265Z,101751.16
2022-10-22T03:03:41.291Z,101757.53
2022-10-22T03:06:09.748Z,101755.69
2022-10-22T03:08:37.587Z,101758.69
2022-10-22T03:11:05.177Z,101759.69
2022-10-22T03:13:33.926Z,101756.69
2022-10-22T03:16:01.474Z,101756.84
2022-10-22T03:18:29.101Z,101763.94
2022-10-22T03:21:06.340Z,101760.56
2022-10-22T03:23:33.764Z,101758.03
2022-10-22T03:26:01.129Z,101765.03
2022-10-22T03:28:28.664Z,101761.50
2022-10-22T03:30:56.148Z,101761.88
2022-10-22T03:33:23.467Z,101765.03
2022-10-22T03:35:50.847Z,101763.13
2022-10-22T03:38:18.220Z,101764.28
2022-10-22T03:40:45.554Z,101758.19
2022-10-22T03:43:12.981Z,101761.22
2022-10-22T03:45:40.255Z,101753.63
2022-10-22T03:48:07.601Z,101753.09
2022-10-22T03:50:35.171Z,101758.00
2022-10-22T03:53:02.742Z,101754.56
2022-10-22T03:55:30.603Z,101746.13
2022-10-22T03:57:57.940Z,101740.84
2022-10-22T04:00:25.324Z,101752.84
2022-10-22T04:02:53.228Z,101743.50
2022-10-22T04:05:21.209Z,101739.97
2022-10-22T04:07:48.514Z,101746.25
2022-10-22T04:10:16.562Z,101750.88
2022-10-22T04:12:47.379Z,101748.44
2022-10-22T04:15:14.862Z,101747.69
2022-10-22T04:17:43.149Z,101751.31
2022-10-22T04:20:13.851Z,101751.66
2022-10-22T04:22:42.730Z,101743.06
2022-10-22T04:25:10.194Z,101750.84
2022-10-22T04:27:37.722Z,101747.38
2022-10-22T04:30:06.779Z,101739.59
2022-10-22T04:32:34.211Z,101742.94
2022-10-22T04:35:02.025Z,101742.47
2022-10-22T04:37:29.575Z,101742.84
2022-10-22T04:39:58.246Z,101739.53
2022-10-22T04:42:26.188Z,101748.44
2022-10-22T04:44:53.713Z,101763.34
2022-10-22T04:47:21.198Z,101757.56
2022-10-22T04:49:48.867Z,101759.19
2022-10-22T04:52:16.336Z,101767.06
2022-10-22T04:54:44.222Z,101772.16
2022-10-22T04:57:11.759Z,101775.34
2022-10-22T04:59:39.554Z,101776.94
2022-10-22T05:02:07.050Z,101781.50
2022-10-22T05:04:34.478Z,101781.88
2022-10-22T05:07:01.849Z,101776.94
2022-10-22T05:09:29.172Z,101779.50
2022-10-22T05:11:56.652Z,101774.06
2022-10-22T05:14:24.631Z,101782.16
2022-10-22T05:16:53.685Z,101787.19
2022-10-22T05:19:25.061Z,101780.66
2022-10-22T05:21:56.682Z,101776.25
2022-10-22T05:24:24.644Z,101785.38
2022-10-22T05:26:52.366Z,101788.28
2022-10-22T05:29:20.312Z,101788.50
2022-10-22T05:31:47.610Z,101792.44
2022-10-22T05:34:14.913Z,101790.44
2022-10-22T05:36:42.325Z,101793.75
2022-10-22T05:39:09.846Z,101798.88
2022-10-22T05:41:37.813Z,101798.41
2022-10-22T05:44:05.406Z,101796.78
2022-10-22T05:46:36.367Z,101795.13
2022-10-22T05:49:04.539Z,101799.78
2022-10-22T05:51:32.814Z,101794.75
2022-10-22T05:54:01.935Z,101782.94
2022-10-22T05:56:30.113Z,101789.69
2022-10-22T05:58:57.581Z,101793.03
2022-10-22T06:01:25.984Z,101797.59
2022-10-22T06:03:53.730Z,101791.38
2022-10-22T06:06:29.333Z,101795.31
2022-10-22T06:08:57.570Z,101785.31
2022-10-22T06:11:24.989Z,101790.09
2022-10-22T06:13:52.446Z,101773.91
2022-10-22T06:16:20.498Z,101781.69
2022-10-22T06:18:49.795Z,101785.09
2022-10-22T06:21:17.119Z,101780.78
2022-10-22T06:23:44.455Z,101768.59
2022-10-22T06:26:12.051Z,101776.06
2022-10-22T06:28:39.409Z,101770.75
2022-10-22T06:31:08.788Z,101769.94
2022-10-22T06:33:42.468Z,101778.19
2022-10-22T06:36:11.101Z,101774.91
2022-10-22T06:38:40.252Z,101770.03
2022-10-22T06:41:08.863Z,101773.19
2022-10-22T06:43:36.345Z,101772.34
2022-10-22T06:46:05.504Z,101779.00
2022-10-22T06:48:33.562Z,101774.13
2022-10-22T06:51:01.650Z,101783.94
2022-10-22T06:53:29.610Z,101785.84
2022-10-22T06:55:56.882Z,101787.13
2022-10-22T06:58:24.328Z,101782.69
2022-10-22T07:01:00.483Z,101784.59
2022-10-22T07:03:27.853Z,101783.09
2022-10-22T07:05:55.461Z,101787.72
2022-10-22T07:08:22.794Z,101786.69
2022-10-22T07:10:50.401Z,101782.91
2022-10-22T07:13:18.144Z,101792.09
2022-10-22T07:15:45.484Z,101789.91
2022-10-22T07:18:13.334Z,101792.63
2022-10-22T07:20:43.189Z,101788.38
2022-10-22T07:23:10.859Z,101787.41
2022-10-22T07:25:38.203Z,101780.38
2022-10-22T07:28:06.108Z,101790.91
2022-10-22T07:30:34.351Z,101759.59
2022-10-22T07:33:01.776Z,101756.88
2022-10-22T07:35:29.262Z,101760.84
2022-10-22T07:37:56.572Z,101761.59
2022-10-22T07:40:24.042Z,101772.09
2022-10-22T07:42:51.461Z,101773.84
2022-10-22T07:45:18.753Z,101762.81
2022-10-22T07:47:47.336Z,101753.84
2022-10-22T07:50:14.942Z,101756.19
2022-10-22T07:52:43.002Z,101767.59
2022-10-22T07:55:10.695Z,101757.25
2022-10-22T15:43:02.408Z,101424.19
2022-10-22T15:45:30.456Z,101423.50
2022-10-22T15:47:59.549Z,101421.88
2022-10-22T15:50:27.141Z,101417.19
2022-10-22T15:52:55.410Z,101422.47
2022-10-22T15:55:22.816Z,101430.88
2022-10-22T15:57:55.177Z,101415.78
2022-10-22T16:00:25.163Z,101419.56
2022-10-22T16:02:53.803Z,101397.53
2022-10-22T16:05:21.151Z,101416.03
2022-10-22T16:07:48.614Z,101409.25
2022-10-22T16:10:16.291Z,101406.19
2022-10-22T16:12:44.240Z,101408.78
2022-10-22T16:15:12.006Z,101413.81
2022-10-22T16:17:39.570Z,101405.94
2022-10-22T16:20:09.477Z,101414.81
2022-10-22T16:22:37.629Z,101418.50
2022-10-22T16:25:05.264Z,101410.19
2022-10-22T16:27:33.054Z,101413.78
2022-10-22T16:30:00.410Z,101414.97
2022-10-22T16:32:28.060Z,101408.56
2022-10-22T16:34:55.492Z,101410.81
2022-10-22T16:37:23.286Z,101410.81
2022-10-22T16:39:50.735Z,101411.72
2022-10-22T16:42:18.271Z,101416.97
2022-10-22T16:44:45.692Z,101412.34
2022-10-22T16:47:13.074Z,101408.31
2022-10-22T16:49:40.800Z,101406.03
2022-10-22T16:52:08.267Z,101399.56
2022-10-22T16:54:36.237Z,101400.69
2022-10-22T16:57:03.660Z,101397.16
2022-10-22T16:59:31.143Z,101393.19
2022-10-22T17:01:58.679Z,101397.09
2022-10-22T17:04:26.458Z,101400.47
2022-10-22T17:06:54.117Z,101389.94
2022-10-22T17:09:25.551Z,101388.22
2022-10-22T17:11:53.347Z,101379.63
2022-10-22T17:14:20.941Z,101375.53
2022-10-22T17:16:53.688Z,101365.81
2022-10-22T17:19:24.196Z,101366.16
2022-10-22T17:21:53.609Z,101360.97
2022-10-22T17:24:21.014Z,101350.72
2022-10-22T17:26:49.384Z,101341.38
2022-10-22T17:29:17.005Z,101357.38
2022-10-22T17:31:44.844Z,101354.53
2022-10-22T17:34:15.070Z,101346.56
2022-10-22T17:36:42.828Z,101337.19
2022-10-22T17:39:11.186Z,101341.19
2022-10-22T17:41:39.850Z,101360.22
2022-10-22T17:44:09.475Z,101359.75
2022-10-22T17:46:37.450Z,101347.34
2022-10-22T17:49:07.080Z,101353.44
2022-10-22T17:51:34.470Z,101353.34
2022-10-22T17:54:03.572Z,101341.88
2022-10-22T17:56:33.612Z,101341.09
2022-10-22T17:59:01.609Z,101344.66
2022-10-22T18:01:30.195Z,101338.66
2022-10-22T18:04:02.766Z,101342.56
2022-10-22T18:06:30.936Z,101338.72
2022-10-22T18:08:59.060Z,101337.03
2022-10-22T18:11:27.226Z,101333.97
2022-10-22T18:13:56.373Z,101335.34
2022-10-22T18:16:25.378Z,101323.19
2022-10-22T18:18:53.799Z,101321.94
2022-10-22T18:21:22.470Z,101328.34
2022-10-22T18:23:50.248Z,101323.09
2022-10-22T18:26:20.232Z,101326.97
2022-10-22T18:28:50.269Z,101314.63
2022-10-22T18:31:18.719Z,101310.41
2022-10-22T18:33:46.137Z,101326.56
2022-10-22T18:36:19.353Z,101302.53
2022-10-22T18:38:53.603Z,101286.03
2022-10-22T18:41:21.629Z,101287.94
2022-10-22T18:43:52.341Z,101305.50
2022-10-22T18:46:24.205Z,101317.41
2022-10-22T18:48:52.953Z,101311.94
2022-10-22T18:51:20.358Z,101320.88
2022-10-22T18:53:59.051Z,101296.22
2022-10-22T18:56:34.681Z,101300.31
2022-10-22T18:59:02.327Z,101290.69
2022-10-22T19:01:29.975Z,101292.09
2022-10-22T19:03:59.487Z,101273.28
2022-10-22T19:06:31.989Z,101278.94
2022-10-22T19:09:00.970Z,101273.16
2022-10-22T19:11:29.122Z,101288.63
2022-10-22T19:13:57.283Z,101273.50
2022-10-22T19:16:26.862Z,101276.69
2022-10-22T19:19:02.457Z,101279.28
2022-10-22T19:21:30.538Z,101272.84
2022-10-22T19:23:59.385Z,101271.94
2022-10-22T19:26:29.731Z,101271.94
2022-10-22T19:29:08.424Z,101266.78
2022-10-22T19:31:37.206Z,101269.00
2022-10-22T19:34:06.951Z,101265.69
2022-10-22T19:36:35.680Z,101276.31
2022-10-22T19:39:03.483Z,101267.16
2022-10-22T19:41:31.016Z,101272.53
2022-10-22T19:43:58.903Z,101264.09
2022-10-22T19:46:26.421Z,101261.06
2022-10-22T19:48:54.355Z,101271.09
2022-10-22T19:51:22.480Z,101270.47
2022-10-22T19:53:50.345Z,101269.00
2022-10-22T19:56:20.295Z,101272.94
2022-10-22T19:58:48.628Z,101271.94
2022-10-22T20:01:16.767Z,101269.16
2022-10-22T20:03:44.279Z,101272.66
2022-10-22T20:06:12.172Z,101270.09
2022-10-22T20:08:39.725Z,101276.03
2022-10-22T20:11:13.168Z,101278.19
2022-10-22T20:13:40.645Z,101281.03
2022-10-22T20:16:17.307Z,101282.34
2022-10-22T20:18:45.084Z,101279.03
2022-10-22T20:21:13.924Z,101282.81
2022-10-22T20:23:44.201Z,101276.19
2022-10-22T20:26:12.829Z,101283.50
2022-10-22T20:28:40.786Z,101278.22
2022-10-22T20:31:11.716Z,101284.47
2022-10-22T20:33:39.685Z,101283.56
2022-10-22T20:36:08.212Z,101266.00
2022-10-22T20:41:08.990Z,101281.56
2022-10-22T20:43:36.373Z,101276.88
2022-10-22T20:46:04.053Z,101272.78
2022-10-22T20:48:31.959Z,101262.03
2022-10-22T20:50:59.849Z,101275.47
2022-10-22T20:53:27.709Z,101267.00
2022-10-22T20:55:57.120Z,101265.84
2022-10-22T20:58:26.877Z,101272.28
2022-10-22T21:00:54.575Z,101264.25
2022-10-22T21:03:22.277Z,101257.47
2022-10-22T21:05:49.873Z,101266.06
2022-10-22T21:08:17.819Z,101252.00
2022-10-22T21:10:46.550Z,101252.16
2022-10-22T21:13:15.220Z,101247.94
2022-10-22T21:15:42.967Z,101235.78
2022-10-22T21:18:10.469Z,101234.16
2022-10-22T21:20:40.943Z,101247.50
2022-10-22T21:23:08.284Z,101241.97
2022-10-22T21:25:39.497Z,101238.94
2022-10-22T21:28:09.652Z,101231.94
2022-10-22T21:30:37.214Z,101237.41
2022-10-22T21:33:04.555Z,101233.28
2022-10-22T21:35:33.779Z,101224.16
2022-10-22T21:38:01.225Z,101213.31
2022-10-22T21:40:28.834Z,101209.56
2022-10-22T21:42:57.729Z,101206.03
2022-10-22T21:45:25.095Z,101215.03
2022-10-22T21:47:52.405Z,101210.00
2022-10-22T21:50:19.823Z,101207.22
2022-10-22T21:52:47.277Z,101207.03
2022-10-22T21:55:14.768Z,101204.78
2022-10-22T21:57:44.111Z,101210.69
2022-10-22T22:00:11.925Z,101208.88
2022-10-22T22:02:46.488Z,101216.09
2022-10-22T22:05:13.932Z,101210.41
2022-10-22T22:07:41.405Z,101208.19
2022-10-22T22:10:13.139Z,101209.72
2022-10-22T22:12:41.679Z,101202.34
2022-10-22T22:15:09.896Z,101205.50
2022-10-22T22:17:37.410Z,101195.28
2022-10-22T22:20:10.177Z,101195.13
2022-10-22T22:22:38.095Z,101192.44
2022-10-22T22:25:05.497Z,101199.19
2022-10-22T22:27:33.163Z,101195.66
2022-10-22T22:30:00.621Z,101189.72
2022-10-22T22:32:28.015Z,101186.19
2022-10-22T22:34:55.315Z,101191.59
2022-10-22T22:37:23.186Z,101179.44
2022-10-22T22:39:51.072Z,101173.75
2022-10-22T22:42:20.830Z,101186.34
2022-10-22T22:44:48.282Z,101174.38
2022-10-22T22:47:15.739Z,101181.13
2022-10-22T22:49:43.537Z,101186.19
2022-10-22T22:52:10.993Z,101181.06
2022-10-22T22:54:38.787Z,101169.50
2022-10-22T22:57:06.318Z,101171.59
2022-10-22T22:59:34.051Z,101161.13
2022-10-22T23:02:01.858Z,101163.44
2022-10-22T23:04:30.291Z,101162.50
2022-10-22T23:06:57.744Z,101167.03
2022-10-22T23:09:25.541Z,101154.97
2022-10-22T23:11:54.306Z,101158.28
2022-10-22T23:14:22.115Z,101152.69
2022-10-22T23:16:50.952Z,101145.13
2022-10-22T23:19:22.174Z,101149.97
2022-10-22T23:21:51.112Z,101137.44
2022-10-22T23:24:19.750Z,101144.47
2022-10-22T23:26:47.784Z,101147.00
2022-10-22T23:29:26.427Z,101142.31
2022-10-22T23:31:55.638Z,101131.72
2022-10-22T23:34:24.263Z,101134.75
2022-10-22T23:36:51.753Z,101124.25
2022-10-22T23:39:20.201Z,101126.22
2022-10-22T23:41:48.520Z,101128.28
2022-10-22T23:44:16.237Z,101128.28
2022-10-22T23:46:43.795Z,101121.31
2022-10-22T23:49:11.883Z,101119.00
2022-10-22T23:51:39.590Z,101117.91
2022-10-22T23:54:13.952Z,101113.00
2022-10-22T23:56:42.993Z,101107.47
2022-10-22T23:59:10.525Z,101109.13
